• Join FlightAware (Why Join?)
  • Login
  • US Flag 
08:54PM EDT


 

Airport Tracker/Info


-or-


 

Live Flight TrackerFlight Track Log ✈ MTN7303 ✈ 02-May-2013 ✈ KBWI - KEWR

Flight Track Log - Related Links

Times and Time Zones

All times are in EDT time to prevent confusion due to time zone crossing. See the MTN7303 flight status page for this flight to view local times or setup timezone preferences in your user account.

Time Position Orientation Groundspeed Altitude Reporting Facility
EDT Latitude Longitude Course Direction KTS MPH feet Rate Location/Type
11:02PM 39.1833 -76.6333 38° Northeast 112 129 1,000  Level Potomac TRACON
11:03PM 39.2167 -76.6000 38° Northeast 115 132 1,900 900 Climbing Potomac TRACON
11:04PM 39.2333 -76.5833 38° Northeast 107 123 2,900 840 Climbing Potomac TRACON
11:05PM 39.2500 -76.5500 57° Northeast 105 121 3,600 780 Climbing Potomac TRACON
11:06PM 39.2667 -76.5333 38° Northeast 106 122 4,500 660 Climbing Potomac TRACON
11:07PM 39.3000 -76.5000 38° Northeast 114 131 5,000 240 Climbing Potomac TRACON
11:08PM 39.3167 -76.4667 57° Northeast 144 166 5,000  Level Potomac TRACON
11:09PM 39.3500 -76.4333 38° Northeast 144 166 5,000  Level Potomac TRACON
11:10PM 39.3833 -76.3833 49° Northeast 141 162 5,000  Level Potomac TRACON
11:11PM 39.4000 -76.3500 57° Northeast 144 166 5,000  Level Potomac TRACON
11:12PM 39.4333 -76.3167 38° Northeast 144 166 5,000  Level Potomac TRACON
11:13PM 39.4667 -76.2833 38° Northeast 144 166 5,000  Level Potomac TRACON
11:14PM 39.4833 -76.2333 67° East 144 166 5,000  Level Potomac TRACON
11:15PM 39.5167 -76.2000 38° Northeast 146 168 5,000  Level Potomac TRACON
11:18PM 39.5833 -76.1167 44° Northeast 141 162 5,000  Level Philadelphia TRACON
11:19PM 39.6167 -76.0833 38° Northeast 141 162 5,000  Level Philadelphia TRACON
11:20PM 39.6333 -76.0500 57° Northeast 143 165 5,000  Level Philadelphia TRACON
11:21PM 39.6667 -76.0167 38° Northeast 141 162 5,000  Level Philadelphia TRACON
11:22PM 39.7000 -75.9667 49° Northeast 142 163 5,000  Level Philadelphia TRACON
11:23PM 39.7167 -75.9333 57° Northeast 143 165 5,000  Level Philadelphia TRACON
11:24PM 39.7500 -75.9000 38° Northeast 143 165 5,000  Level Philadelphia TRACON
11:25PM 39.7833 -75.8667 38° Northeast 143 165 5,000  Level Philadelphia TRACON
11:26PM 39.8000 -75.8333 57° Northeast 146 168 5,000  Level Philadelphia TRACON
11:27PM 39.8333 -75.7833 49° Northeast 145 167 5,000  Level Philadelphia TRACON
11:28PM 39.8667 -75.7500 38° Northeast 145 167 5,000  Level Philadelphia TRACON
11:29PM 39.8833 -75.7167 57° Northeast 146 168 5,000  Level Philadelphia TRACON
11:30PM 39.9167 -75.6667 49° Northeast 147 169 5,000  Level Philadelphia TRACON
11:31PM 39.9333 -75.6333 57° Northeast 146 168 5,000  Level Philadelphia TRACON
11:32PM 39.9500 -75.5833 66° East 143 165 5,000  Level Philadelphia TRACON
11:33PM 39.9833 -75.5500 37° Northeast 144 166 5,000  Level Philadelphia TRACON
11:34PM 40.0000 -75.5000 66° East 148 170 5,000  Level Philadelphia TRACON
11:35PM 40.0167 -75.4500 66° East 146 168 5,000  Level Philadelphia TRACON
11:36PM 40.0333 -75.4000 66° East 146 168 5,000  Level Philadelphia TRACON
11:37PM 40.0500 -75.3667 57° Northeast 145 167 5,000  Level Philadelphia TRACON
11:37PM 40.0667 -75.3167 66° East 145 167 5,000  Level Philadelphia TRACON
11:39PM 40.1000 -75.2667 49° Northeast 144 166 5,000  Level Philadelphia TRACON
11:40PM 40.1167 -75.2167 66° East 145 167 5,000  Level Philadelphia TRACON
11:41PM 40.1333 -75.1833 57° Northeast 144 166 5,000  Level Philadelphia TRACON
11:42PM 40.1500 -75.1333 66° East 145 167 5,000  Level Philadelphia TRACON
11:43PM 40.1833 -75.0833 49° Northeast 146 168 5,000  Level Philadelphia TRACON
11:43PM 40.1833 -75.0500 90° East 146 168 5,000  Level Philadelphia TRACON
11:45PM 40.2167 -75.0000 49° Northeast 148 170 5,000  Level New York TRACON
11:46PM 40.2333 -74.9500 66° East 148 170 5,000  Level New York TRACON
11:47PM 40.2500 -74.9167 57° Northeast 148 170 5,000  Level New York TRACON
11:48PM 40.2833 -74.8667 49° Northeast 151 174 5,000  Level New York TRACON
11:49PM 40.3167 -74.8333 37° Northeast 149 171 5,000  Level New York TRACON
11:50PM 40.3333 -74.7833 66° East 151 174 5,000  Level New York TRACON
11:51PM 40.3667 -74.7500 37° Northeast 148 170 5,000  Level New York TRACON
11:52PM 40.4000 -74.7167 37° Northeast 150 173 5,000 -300 Level New York TRACON
11:53PM 40.4333 -74.6667 49° Northeast 165 190 4,500 -540 Descending New York TRACON
11:54PM 40.4667 -74.6500 21° North 173 199 4,000 -300 Descending New York TRACON
11:55PM 40.5167 -74.6167 27° Northeast 162 186 4,000  Level New York TRACON
11:56PM 40.5500 -74.6000 21° North 161 185 4,000  Level New York TRACON
11:57PM 40.5833 -74.5667 37° Northeast 157 181 4,000  Level New York TRACON
11:58PM 40.6333 -74.5500 14° North 154 177 4,000  Level New York TRACON
11:59PM 40.6667 -74.5333 21° North 157 181 4,000  Level New York TRACON
12:00AM 40.7167 -74.5000 27° Northeast 159 183 4,000  Level New York TRACON
12:01AM 40.7500 -74.4667 37° Northeast 155 178 4,000 -60 Level New York TRACON
12:02AM 40.7667 -74.4333 57° Northeast 155 178 3,900 -300 Descending New York TRACON
12:03AM 40.8000 -74.3833 49° Northeast 169 194 3,400 -480 Descending New York TRACON
12:04AM 40.8500 -74.3500 27° Northeast 170 196 3,000 -240 Descending New York TRACON
12:05AM 40.8667 -74.3000 66° East 150 173 3,000  Level New York TRACON
12:06AM 40.8667 -74.2500 90° East 145 167 3,000  Level New York TRACON
12:07AM 40.8667 -74.2000 90° East 142 163 3,000  Level New York TRACON
12:08AM 40.8667 -74.1500 90° East 141 162 3,000 -180 Level New York TRACON
12:09AM 40.8333 -74.1167 143° Southeast 160 184 2,700 -420 Descending New York TRACON
12:10AM 40.7833 -74.1167 180° South 165 190 2,200 -780 Descending New York TRACON
12:11AM 40.7333 -74.1500 207° Southwest 175 201 1,200 -1,020 Descending New York TRACON